createdAt,value
2018-02-06T00:00:19.996Z,1.18
2018-02-06T00:00:43.795Z,1.18
2018-02-06T00:01:07.536Z,1.18
2018-02-06T00:01:31.309Z,1.17
2018-02-06T00:01:55.399Z,1.17
2018-02-06T00:02:19.159Z,1.18
2018-02-06T00:02:42.622Z,1.17
2018-02-06T00:03:06.397Z,1.17
2018-02-06T00:03:30.180Z,1.17
2018-02-06T00:03:53.925Z,1.17
2018-02-06T00:04:17.948Z,1.16
2018-02-06T00:04:41.992Z,1.17
2018-02-06T00:05:05.436Z,1.16
2018-02-06T00:05:29.203Z,1.16
2018-02-06T00:05:53.079Z,1.16
2018-02-06T00:06:16.904Z,1.16
2018-02-06T00:06:40.674Z,1.16
2018-02-06T00:07:04.705Z,1.15
2018-02-06T00:07:28.517Z,1.15
2018-02-06T00:07:52.611Z,1.15
2018-02-06T00:08:16.385Z,1.15
2018-02-06T00:08:39.846Z,1.14
2018-02-06T00:09:03.410Z,1.14
2018-02-06T00:09:26.871Z,1.13
2018-02-06T00:09:50.640Z,1.13
2018-02-06T00:10:14.437Z,1.13
2018-02-06T00:10:38.461Z,1.12
2018-02-06T00:11:02.973Z,1.12
2018-02-06T00:11:26.477Z,1.12
2018-02-06T00:11:50.226Z,1.12
2018-02-06T00:12:14.024Z,1.12
2018-02-06T00:12:37.846Z,1.12
2018-02-06T00:13:01.890Z,1.12
2018-02-06T00:13:25.387Z,1.11
2018-02-06T00:13:49.199Z,1.10
2018-02-06T00:14:12.949Z,1.10
2018-02-06T00:14:36.704Z,1.10
2018-02-06T00:15:00.164Z,1.09
2018-02-06T00:15:23.906Z,1.09
2018-02-06T00:15:47.739Z,1.09
2018-02-06T00:16:11.674Z,1.08
2018-02-06T00:16:35.521Z,1.08
2018-02-06T00:16:59.291Z,1.08
2018-02-06T00:17:23.355Z,1.08
2018-02-06T00:17:46.823Z,1.07
2018-02-06T00:18:10.632Z,1.07
2018-02-06T00:18:34.382Z,1.07
2018-02-06T00:18:58.133Z,1.07
2018-02-06T00:19:22.185Z,1.07
2018-02-06T00:19:45.933Z,1.07
2018-02-06T00:20:10.075Z,1.06
2018-02-06T00:20:33.912Z,1.05
2018-02-06T00:20:57.940Z,1.05
2018-02-06T00:21:21.824Z,1.05
2018-02-06T00:21:45.299Z,1.04
2018-02-06T00:22:08.414Z,1.04
2018-02-06T00:22:43.260Z,1.03
2018-02-06T00:23:07.009Z,1.03
2018-02-06T00:23:30.758Z,1.02
2018-02-06T00:23:54.505Z,1.02
2018-02-06T00:24:18.475Z,1.01
2018-02-06T00:24:42.250Z,1.01
2018-02-06T00:25:06.295Z,1.01
2018-02-06T00:25:29.986Z,1.01
2018-02-06T00:25:53.814Z,1.00
2018-02-06T00:26:18.088Z,1.00
2018-02-06T00:26:42.360Z,0.99
2018-02-06T00:27:06.152Z,0.99
2018-02-06T00:27:29.969Z,0.99
2018-02-06T00:27:54.006Z,0.99
2018-02-06T00:28:17.887Z,0.99
2018-02-06T00:28:41.369Z,0.99
2018-02-06T00:29:05.393Z,0.99
2018-02-06T00:29:29.275Z,0.99
2018-02-06T00:29:53.017Z,0.99
2018-02-06T00:30:16.802Z,0.99
2018-02-06T00:30:40.551Z,0.99
2018-02-06T00:31:04.488Z,0.99
2018-02-06T00:31:28.241Z,0.98
2018-02-06T00:31:51.783Z,0.98
2018-02-06T00:32:15.548Z,0.97
2018-02-06T00:32:39.430Z,0.97
2018-02-06T00:33:03.177Z,0.97
2018-02-06T00:33:26.955Z,0.97
2018-02-06T00:33:50.410Z,0.97
2018-02-06T00:34:14.169Z,0.97
2018-02-06T00:34:37.918Z,0.97
2018-02-06T00:35:01.998Z,0.97
2018-02-06T00:35:25.825Z,0.96
2018-02-06T00:35:49.785Z,0.97
2018-02-06T00:36:13.540Z,0.96
2018-02-06T00:36:37.062Z,0.96
2018-02-06T00:37:00.868Z,0.96
2018-02-06T00:37:24.630Z,0.95
2018-02-06T00:37:48.425Z,0.96
2018-02-06T00:38:12.505Z,0.95
2018-02-06T00:38:36.321Z,0.95
2018-02-06T00:39:00.368Z,0.95
2018-02-06T00:39:24.169Z,0.95
2018-02-06T00:39:48.161Z,0.95
2018-02-06T00:40:12.297Z,0.94
2018-02-06T00:40:36.250Z,0.95
2018-02-06T00:41:00.046Z,0.95
2018-02-06T00:41:23.843Z,0.95
2018-02-06T00:41:47.308Z,0.94
2018-02-06T00:42:14.469Z,0.94
2018-02-06T00:42:38.290Z,0.94
2018-02-06T00:43:02.065Z,0.94
2018-02-06T00:43:25.891Z,0.94
2018-02-06T00:43:49.648Z,0.94
2018-02-06T00:44:13.416Z,0.94
2018-02-06T00:44:36.865Z,0.94
2018-02-06T00:45:00.685Z,0.94
2018-02-06T00:45:24.136Z,0.94
2018-02-06T00:45:47.883Z,0.94
2018-02-06T00:46:11.662Z,0.94
2018-02-06T00:46:35.409Z,0.93
2018-02-06T00:46:59.206Z,0.93
2018-02-06T00:47:22.996Z,0.93
2018-02-06T00:47:46.473Z,0.93
2018-02-06T00:48:09.547Z,0.92
2018-02-06T00:48:33.302Z,0.92
2018-02-06T00:48:57.539Z,0.92
2018-02-06T00:49:21.016Z,0.92
2018-02-06T00:49:44.777Z,0.92
2018-02-06T00:50:08.846Z,0.91
2018-02-06T00:50:32.638Z,0.91
2018-02-06T00:50:56.730Z,0.91
2018-02-06T00:51:20.501Z,0.90
2018-02-06T00:51:44.565Z,0.90
2018-02-06T00:52:08.325Z,0.89
2018-02-06T00:52:31.869Z,0.89
2018-02-06T00:52:55.617Z,0.89
2018-02-06T00:53:19.393Z,0.89
2018-02-06T00:53:43.207Z,0.88
2018-02-06T00:54:07.282Z,0.88
2018-02-06T00:54:31.052Z,0.87
2018-02-06T00:54:55.086Z,0.86
2018-02-06T00:55:19.116Z,0.86
2018-02-06T00:55:42.871Z,0.86
2018-02-06T00:56:06.323Z,0.86
2018-02-06T00:56:30.078Z,0.86
2018-02-06T00:56:53.874Z,0.86
2018-02-06T00:57:17.360Z,0.85
2018-02-06T00:57:41.194Z,0.85
2018-02-06T00:58:04.971Z,0.85
2018-02-06T00:58:28.705Z,0.85
2018-02-06T00:58:52.461Z,0.85
2018-02-06T00:59:15.906Z,0.85
2018-02-06T00:59:39.658Z,0.85
2018-02-06T01:00:03.443Z,0.84
2018-02-06T01:00:27.976Z,0.84
2018-02-06T01:00:51.725Z,0.84
2018-02-06T01:01:15.468Z,0.84
2018-02-06T01:01:39.253Z,0.84
2018-02-06T01:02:03.282Z,0.83
2018-02-06T01:02:27.038Z,0.83
2018-02-06T01:02:50.558Z,0.83
2018-02-06T01:03:14.303Z,0.83
2018-02-06T01:03:38.114Z,0.83
2018-02-06T01:04:01.878Z,0.83
2018-02-06T01:04:25.981Z,0.83
2018-02-06T01:04:49.780Z,0.83
2018-02-06T01:05:13.806Z,0.83
2018-02-06T01:05:37.281Z,0.83
2018-02-06T01:06:01.036Z,0.83
2018-02-06T01:06:24.883Z,0.82
2018-02-06T01:06:48.657Z,0.83
2018-02-06T01:07:12.402Z,0.82
2018-02-06T01:07:35.860Z,0.82
2018-02-06T01:07:59.681Z,0.82
2018-02-06T01:08:23.409Z,0.82
2018-02-06T01:08:47.163Z,0.81
2018-02-06T01:09:10.614Z,0.81
2018-02-06T01:09:34.377Z,0.81
2018-02-06T01:09:58.186Z,0.81
2018-02-06T01:10:21.996Z,0.81
2018-02-06T01:10:46.060Z,0.80
2018-02-06T01:11:10.063Z,0.80
2018-02-06T01:11:33.918Z,0.79
2018-02-06T01:11:57.964Z,0.79
2018-02-06T01:12:21.743Z,0.79
2018-02-06T01:12:45.218Z,0.79
2018-02-06T01:13:08.981Z,0.78
2018-02-06T01:13:32.771Z,0.78
2018-02-06T01:13:56.573Z,0.78
2018-02-06T01:14:20.625Z,0.79
2018-02-06T01:14:44.080Z,0.78
2018-02-06T01:15:07.828Z,0.79
2018-02-06T01:15:31.589Z,0.78
2018-02-06T01:15:55.331Z,0.78
2018-02-06T01:16:19.350Z,0.77
2018-02-06T01:16:43.406Z,0.78
2018-02-06T01:17:07.146Z,0.77
2018-02-06T01:17:30.618Z,0.78
2018-02-06T01:17:54.436Z,0.77
2018-02-06T01:18:18.247Z,0.77
2018-02-06T01:18:42.023Z,0.77
2018-02-06T01:19:05.712Z,0.77
2018-02-06T01:19:29.485Z,0.76
2018-02-06T01:19:53.327Z,0.76
2018-02-06T01:20:17.076Z,0.76
2018-02-06T01:20:40.824Z,0.76
2018-02-06T01:21:04.560Z,0.76
2018-02-06T01:21:28.009Z,0.75
2018-02-06T01:21:51.757Z,0.75
2018-02-06T01:22:15.560Z,0.75
2018-02-06T01:22:39.601Z,0.74
2018-02-06T01:23:03.382Z,0.74
2018-02-06T01:23:26.852Z,0.73
2018-02-06T01:23:50.622Z,0.73
2018-02-06T01:24:14.363Z,0.72
2018-02-06T01:24:38.205Z,0.72
2018-02-06T01:25:02.269Z,0.73
2018-02-06T01:25:26.065Z,0.72
2018-02-06T01:25:49.532Z,0.71
2018-02-06T01:26:13.289Z,0.71
2018-02-06T01:26:37.102Z,0.71
2018-02-06T01:27:01.058Z,0.71
2018-02-06T01:27:24.912Z,0.72
2018-02-06T01:27:49.077Z,0.72
2018-02-06T01:28:12.857Z,0.71
2018-02-06T01:28:36.691Z,0.72
2018-02-06T01:29:00.758Z,0.71
2018-02-06T01:29:24.503Z,0.72
2018-02-06T01:29:47.952Z,0.72
2018-02-06T01:30:11.822Z,0.72
2018-02-06T01:30:35.560Z,0.71
2018-02-06T01:30:59.304Z,0.72
2018-02-06T01:31:22.755Z,0.72
2018-02-06T01:31:46.516Z,0.71
2018-02-06T01:32:10.252Z,0.71
2018-02-06T01:32:34.278Z,0.71
2018-02-06T01:32:58.062Z,0.71
2018-02-06T01:33:21.545Z,0.70
2018-02-06T01:33:45.337Z,0.70
2018-02-06T01:34:09.065Z,0.70
2018-02-06T01:34:32.820Z,0.70
2018-02-06T01:34:56.288Z,0.70
2018-02-06T01:35:20.012Z,0.70
2018-02-06T01:35:43.743Z,0.70
2018-02-06T01:36:07.768Z,0.70
2018-02-06T01:36:31.545Z,0.70
2018-02-06T01:36:54.988Z,0.69
2018-02-06T01:37:18.728Z,0.70
2018-02-06T01:37:42.506Z,0.69
2018-02-06T01:38:06.345Z,0.70
2018-02-06T01:38:29.902Z,0.70
2018-02-06T01:38:53.762Z,0.68
2018-02-06T01:39:17.521Z,0.69
2018-02-06T01:39:41.266Z,0.69
2018-02-06T01:40:05.335Z,0.69
2018-02-06T01:40:29.126Z,0.69
2018-02-06T01:40:53.149Z,0.68
2018-02-06T01:41:17.001Z,0.69
2018-02-06T01:41:41.060Z,0.69
2018-02-06T01:42:04.812Z,0.68
2018-02-06T01:42:28.253Z,0.69
2018-02-06T01:42:52.018Z,0.68
2018-02-06T01:43:15.813Z,0.68
2018-02-06T01:43:39.856Z,0.68
2018-02-06T01:44:03.686Z,0.67
2018-02-06T01:44:27.696Z,0.67
2018-02-06T01:44:51.443Z,0.67
2018-02-06T01:45:14.891Z,0.67
2018-02-06T01:45:38.625Z,0.67
2018-02-06T01:46:02.506Z,0.67
2018-02-06T01:46:26.266Z,0.66
2018-02-06T01:46:49.794Z,0.67
2018-02-06T01:47:13.537Z,0.66
2018-02-06T01:47:37.298Z,0.66
2018-02-06T01:48:01.053Z,0.66
2018-02-06T01:48:25.089Z,0.66
2018-02-06T01:48:49.113Z,0.65
2018-02-06T01:49:12.877Z,0.65
2018-02-06T01:49:36.403Z,0.66
2018-02-06T01:50:05.656Z,0.65
2018-02-06T01:50:29.301Z,0.65
2018-02-06T01:50:52.965Z,0.64
2018-02-06T01:51:16.804Z,0.64
2018-02-06T01:51:40.564Z,0.64
2018-02-06T01:52:04.234Z,0.64
2018-02-06T01:52:28.037Z,0.64
2018-02-06T01:52:51.769Z,0.64
2018-02-06T01:53:15.539Z,0.63
2018-02-06T01:53:39.277Z,0.63
2018-02-06T01:54:02.741Z,0.62
2018-02-06T01:54:26.516Z,0.63
2018-02-06T01:54:50.252Z,0.62
2018-02-06T01:55:14.272Z,0.62
2018-02-06T01:55:38.050Z,0.62
2018-02-06T01:56:01.528Z,0.62
2018-02-06T01:56:25.298Z,0.62
2018-02-06T01:56:49.042Z,0.62
2018-02-06T01:57:12.490Z,0.62
2018-02-06T01:57:36.282Z,0.61
2018-02-06T01:58:00.069Z,0.61
2018-02-06T01:58:23.821Z,0.62
2018-02-06T01:58:47.880Z,0.61
2018-02-06T01:59:11.661Z,0.62
2018-02-06T01:59:35.712Z,0.62
2018-02-06T01:59:59.532Z,0.62
2018-02-06T02:00:23.637Z,0.62
2018-02-06T02:00:47.403Z,0.62
2018-02-06T02:01:10.896Z,0.61
2018-02-06T02:01:34.641Z,0.62
2018-02-06T02:01:58.434Z,0.61
2018-02-06T02:02:22.202Z,0.61
2018-02-06T02:02:45.661Z,0.61
2018-02-06T02:03:09.397Z,0.61
2018-02-06T02:03:33.146Z,0.61
2018-02-06T02:03:57.176Z,0.61
2018-02-06T02:04:21.160Z,0.61
2018-02-06T02:04:44.960Z,0.61
2018-02-06T02:05:09.015Z,0.60
2018-02-06T02:05:32.466Z,0.60
2018-02-06T02:05:56.208Z,0.60
2018-02-06T02:06:20.162Z,0.60
2018-02-06T02:06:43.897Z,0.59
2018-02-06T02:07:07.646Z,0.60
2018-02-06T02:07:31.136Z,0.60
2018-02-06T02:07:54.868Z,0.59
2018-02-06T02:08:18.640Z,0.59
2018-02-06T02:08:42.678Z,0.59
2018-02-06T02:09:06.081Z,0.59
2018-02-06T02:09:30.047Z,0.59
2018-02-06T02:09:53.848Z,0.59
2018-02-06T02:10:17.616Z,0.59
2018-02-06T02:10:41.375Z,0.59
2018-02-06T02:11:04.866Z,0.58
2018-02-06T02:11:28.600Z,0.59
2018-02-06T02:11:52.335Z,0.58
2018-02-06T02:12:16.093Z,0.58
2018-02-06T02:12:40.173Z,0.58
2018-02-06T02:13:03.913Z,0.59
2018-02-06T02:13:27.152Z,0.59
2018-02-06T02:13:50.893Z,0.59
2018-02-06T02:14:14.913Z,0.59
2018-02-06T02:14:38.931Z,0.58
2018-02-06T02:15:02.747Z,0.59
2018-02-06T02:15:26.778Z,0.58
2018-02-06T02:15:50.825Z,0.57
2018-02-06T02:16:14.600Z,0.58
2018-02-06T02:16:38.619Z,0.57
2018-02-06T02:17:02.659Z,0.57
2018-02-06T02:17:26.416Z,0.57
2018-02-06T02:17:49.876Z,0.57
2018-02-06T02:18:13.620Z,0.57
2018-02-06T02:18:37.364Z,0.57
2018-02-06T02:19:01.422Z,0.56
2018-02-06T02:19:24.919Z,0.56
2018-02-06T02:19:48.737Z,0.56
2018-02-06T02:20:12.600Z,0.56
2018-02-06T02:20:36.364Z,0.56
2018-02-06T02:21:00.109Z,0.56
2018-02-06T02:21:23.869Z,0.56
2018-02-06T02:21:47.321Z,0.56
2018-02-06T02:22:11.110Z,0.56
2018-02-06T02:22:34.926Z,0.57
2018-02-06T02:22:58.690Z,0.56
2018-02-06T02:23:22.180Z,0.57
2018-02-06T02:23:45.939Z,0.56
2018-02-06T02:24:09.726Z,0.56
2018-02-06T02:24:33.473Z,0.56
2018-02-06T02:24:56.923Z,0.56
2018-02-06T02:25:20.697Z,0.55
2018-02-06T02:25:44.133Z,0.55
2018-02-06T02:26:07.865Z,0.55
2018-02-06T02:26:31.670Z,0.54
2018-02-06T02:26:55.424Z,0.55
2018-02-06T02:27:19.156Z,0.54
2018-02-06T02:27:43.210Z,0.55
2018-02-06T02:28:07.235Z,0.55
2018-02-06T02:28:30.981Z,0.55
2018-02-06T02:28:54.430Z,0.55
2018-02-06T02:29:18.180Z,0.55
2018-02-06T02:29:41.916Z,0.55
2018-02-06T02:30:05.968Z,0.55
2018-02-06T02:30:29.508Z,0.55
2018-02-06T02:30:53.259Z,0.55
2018-02-06T02:31:17.037Z,0.56
2018-02-06T02:31:40.787Z,0.55
2018-02-06T02:32:04.536Z,0.55
2018-02-06T02:32:28.271Z,0.55
2018-02-06T02:32:52.021Z,0.55
2018-02-06T02:33:15.848Z,0.54
2018-02-06T02:33:39.606Z,0.54
2018-02-06T02:34:03.440Z,0.54
2018-02-06T02:34:27.496Z,0.54
2018-02-06T02:34:51.254Z,0.53
2018-02-06T02:35:15.308Z,0.54
2018-02-06T02:35:38.794Z,0.53
2018-02-06T02:36:02.649Z,0.53
2018-02-06T02:36:26.473Z,0.53
2018-02-06T02:36:50.264Z,0.53
2018-02-06T02:37:14.016Z,0.53
2018-02-06T02:37:38.073Z,0.53
2018-02-06T02:38:01.841Z,0.53
2018-02-06T02:38:25.878Z,0.53
2018-02-06T02:38:49.901Z,0.52
2018-02-06T02:39:13.738Z,0.52
2018-02-06T02:39:37.798Z,0.52
2018-02-06T02:40:01.536Z,0.52
2018-02-06T02:40:24.972Z,0.51
2018-02-06T02:40:48.747Z,0.51
2018-02-06T02:41:12.496Z,0.51
2018-02-06T02:41:36.505Z,0.51
2018-02-06T04:38:46.520Z,0.41
2018-02-06T04:39:10.272Z,0.41
2018-02-06T04:39:34.016Z,0.41
2018-02-06T04:39:57.500Z,0.41
2018-02-06T04:40:21.366Z,0.40
2018-02-06T04:40:45.116Z,0.39
2018-02-06T04:41:08.868Z,0.39
2018-02-06T04:41:32.900Z,0.39
2018-02-06T04:41:56.746Z,0.38
2018-02-06T04:42:20.761Z,0.39
2018-02-06T04:42:44.205Z,0.39
2018-02-06T04:43:08.017Z,0.39
2018-02-06T04:43:31.796Z,0.39
2018-02-06T04:43:55.524Z,0.40
2018-02-06T04:44:19.029Z,0.40
2018-02-06T04:44:42.813Z,0.39
2018-02-06T04:45:06.366Z,0.40
2018-02-06T04:45:29.821Z,0.40
2018-02-06T04:45:53.573Z,0.40
2018-02-06T04:46:17.354Z,0.40
2018-02-06T04:46:41.099Z,0.40
2018-02-06T04:47:05.139Z,0.40
2018-02-06T04:47:28.937Z,0.40
2018-02-06T04:47:52.960Z,0.40
2018-02-06T04:48:16.705Z,0.40
2018-02-06T04:48:40.486Z,0.40
2018-02-06T04:49:04.058Z,0.40
2018-02-06T04:49:27.814Z,0.40
2018-02-06T04:49:51.370Z,0.41
2018-02-06T04:50:15.132Z,0.40
2018-02-06T04:50:38.912Z,0.41
2018-02-06T04:51:02.686Z,0.41
2018-02-06T04:51:26.434Z,0.41
2018-02-06T04:51:49.921Z,0.41
2018-02-06T04:52:13.706Z,0.42
2018-02-06T04:52:37.665Z,0.42
2018-02-06T04:53:01.401Z,0.42
2018-02-06T04:53:25.158Z,0.42
2018-02-06T04:53:48.989Z,0.42
2018-02-06T04:54:13.056Z,0.43
2018-02-06T04:54:36.833Z,0.43
2018-02-06T04:54:59.959Z,0.43
2018-02-06T04:55:23.740Z,0.43
2018-02-06T04:55:47.252Z,0.43
2018-02-06T04:56:10.996Z,0.43
2018-02-06T04:56:34.780Z,0.42
2018-02-06T04:56:58.520Z,0.43
2018-02-06T04:57:22.572Z,0.43
2018-02-06T04:57:46.024Z,0.43
2018-02-06T04:58:09.775Z,0.43
2018-02-06T04:58:33.569Z,0.44
2018-02-06T04:58:57.368Z,0.43
2018-02-06T04:59:21.152Z,0.44
2018-02-06T04:59:45.207Z,0.43
2018-02-06T05:00:08.672Z,0.43
2018-02-06T05:00:32.429Z,0.43
2018-02-06T05:00:56.392Z,0.43
2018-02-06T05:01:20.145Z,0.43
2018-02-06T05:01:43.970Z,0.43
2018-02-06T05:02:07.760Z,0.43
2018-02-06T05:02:31.817Z,0.42
2018-02-06T05:02:55.317Z,0.43
2018-02-06T05:03:19.312Z,0.43
2018-02-06T05:03:43.048Z,0.43
2018-02-06T05:04:06.805Z,0.43
2018-02-06T05:04:30.560Z,0.42
2018-02-06T05:04:54.350Z,0.41
2018-02-06T05:05:17.796Z,0.40
2018-02-06T05:05:41.548Z,0.40
2018-02-06T05:06:05.295Z,0.40
2018-02-06T05:48:06.879Z,-0.03
2018-02-06T05:48:30.959Z,-0.03
2018-02-06T05:48:54.725Z,-0.03
2018-02-06T05:49:18.192Z,-0.02
2018-02-06T05:49:41.985Z,-0.02
2018-02-06T05:50:05.753Z,0.00
2018-02-06T05:50:29.508Z,0.00
2018-02-06T05:50:52.985Z,0.01
2018-02-06T05:51:16.740Z,0.02
2018-02-06T05:51:40.476Z,0.03
2018-02-06T05:52:04.448Z,0.04
2018-02-06T05:52:28.200Z,0.04
2018-02-06T05:52:52.335Z,0.06
2018-02-06T05:53:16.184Z,0.07
2018-02-06T05:53:39.963Z,0.09
2018-02-06T05:54:03.497Z,0.11
2018-02-06T05:54:27.332Z,0.12
2018-02-06T05:54:51.186Z,0.14
2018-02-06T05:55:15.027Z,0.15
2018-02-06T05:55:38.775Z,0.17
2018-02-06T05:56:02.226Z,0.17
2018-02-06T05:56:26.049Z,0.19
2018-02-06T05:56:49.842Z,0.20
2018-02-06T05:57:13.581Z,0.20
2018-02-06T05:57:37.364Z,0.22
2018-02-06T05:58:01.441Z,0.22
2018-02-06T05:58:25.228Z,0.24
2018-02-06T05:58:49.260Z,0.25
2018-02-06T05:59:13.277Z,0.27
2018-02-06T05:59:37.042Z,0.28
2018-02-06T06:00:00.501Z,0.29
2018-02-06T06:00:24.270Z,0.32
2018-02-06T06:00:48.096Z,0.32
2018-02-06T06:01:11.866Z,0.34
2018-02-06T06:01:35.900Z,0.34
2018-02-06T06:01:59.668Z,0.36
2018-02-06T06:02:23.825Z,0.37
2018-02-06T06:02:47.673Z,0.39
2018-02-06T06:03:11.420Z,0.40
2018-02-06T06:03:35.064Z,0.41
2018-02-06T06:03:58.697Z,0.42
2018-02-06T06:04:22.436Z,0.42
2018-02-06T06:04:46.188Z,0.43
2018-02-06T06:05:09.662Z,0.44
2018-02-06T06:05:33.518Z,0.45
2018-02-06T06:05:57.418Z,0.46
2018-02-06T06:06:21.176Z,0.47
2018-02-06T06:06:44.928Z,0.46
2018-02-06T06:07:08.385Z,0.47
2018-02-06T06:07:32.125Z,0.47
2018-02-06T06:07:55.889Z,0.47
2018-02-06T06:08:19.741Z,0.47
2018-02-06T06:08:43.878Z,0.47
2018-02-06T06:09:07.613Z,0.47
2018-02-06T06:09:31.701Z,0.47
2018-02-06T06:09:55.489Z,0.47
2018-02-06T06:10:19.625Z,0.47
2018-02-06T06:10:43.385Z,0.48
2018-02-06T06:11:07.471Z,0.47
2018-02-06T06:11:31.241Z,0.47
2018-02-06T06:11:55.367Z,0.46
2018-02-06T06:12:19.228Z,0.46
2018-02-06T06:12:42.678Z,0.45
2018-02-06T06:13:06.432Z,0.44
2018-02-06T06:13:30.200Z,0.44
2018-02-06T06:13:54.027Z,0.43
2018-02-06T06:14:17.807Z,0.42
2018-02-06T06:14:41.830Z,0.41
2018-02-06T06:15:05.920Z,0.40
2018-02-06T06:15:29.657Z,0.39
2018-02-06T06:15:53.686Z,0.38
2018-02-06T06:16:17.210Z,0.37
2018-02-06T06:16:40.933Z,0.36
2018-02-06T06:17:04.513Z,0.36
2018-02-06T06:17:28.063Z,0.35
2018-02-06T06:17:51.877Z,0.34
2018-02-06T06:18:15.617Z,0.35
2018-02-06T06:18:39.370Z,0.34
2018-02-06T06:19:03.136Z,0.33
2018-02-06T06:19:27.172Z,0.33
2018-02-06T06:19:50.620Z,0.32
2018-02-06T06:20:14.566Z,0.32
2018-02-06T06:20:38.300Z,0.32
2018-02-06T06:21:02.041Z,0.31
2018-02-06T06:21:25.796Z,0.31
2018-02-06T06:21:49.841Z,0.32
2018-02-06T06:22:13.593Z,0.32
2018-02-06T06:22:37.115Z,0.32
2018-02-06T06:23:00.974Z,0.32
2018-02-06T06:23:24.718Z,0.32
2018-02-06T06:23:48.498Z,0.31
2018-02-06T06:24:12.560Z,0.31
2018-02-06T06:24:36.344Z,0.30
2018-02-06T06:25:00.382Z,0.31
2018-02-06T06:25:23.829Z,0.30
2018-02-06T06:25:47.592Z,0.30
2018-02-06T06:26:11.430Z,0.29
2018-02-06T06:26:35.170Z,0.29
2018-02-06T06:26:58.974Z,0.28
2018-02-06T06:27:23.016Z,0.28
2018-02-06T06:27:46.472Z,0.28
2018-02-06T06:28:10.224Z,0.27
2018-02-06T06:28:33.972Z,0.27
2018-02-06T06:28:57.728Z,0.27
2018-02-06T06:29:21.793Z,0.26
2018-02-06T06:29:45.613Z,0.25
2018-02-06T06:30:09.321Z,0.24
2018-02-06T06:30:33.114Z,0.23
2018-02-06T06:30:56.922Z,0.23
2018-02-06T06:31:20.962Z,0.22
2018-02-06T06:31:44.693Z,0.22
2018-02-06T06:32:08.485Z,0.21
2018-02-06T06:32:32.243Z,0.20
2018-02-06T06:32:56.268Z,0.20
2018-02-06T06:33:20.037Z,0.19
2018-02-06T06:33:44.096Z,0.19
2018-02-06T06:34:08.150Z,0.18
2018-02-06T06:34:31.757Z,0.18
2018-02-06T06:34:55.259Z,0.17
2018-02-06T06:35:18.995Z,0.16
2018-02-06T06:35:42.741Z,0.14
2018-02-06T06:36:06.886Z,0.14
2018-02-06T06:36:30.670Z,0.13
2018-02-06T06:36:54.275Z,0.12
2018-02-06T06:37:18.067Z,0.11
2018-02-06T06:37:41.845Z,0.10
2018-02-06T06:38:05.583Z,0.09
2018-02-06T06:38:29.341Z,0.09
2018-02-06T06:38:53.407Z,0.07
2018-02-06T06:39:17.156Z,0.06
2018-02-06T06:39:40.799Z,0.04
2018-02-06T06:40:04.687Z,0.03
2018-02-06T06:40:28.529Z,0.02
2018-02-06T06:40:52.256Z,0.02
2018-02-06T06:41:16.013Z,0.01
2018-02-06T06:41:39.853Z,0.01
2018-02-06T06:42:03.885Z,0.01
2018-02-06T06:42:27.339Z,-0.01
2018-02-06T06:42:51.145Z,0.00
2018-02-06T06:43:14.712Z,0.00
2018-02-06T06:43:38.200Z,-0.01
2018-02-06T06:44:01.972Z,-0.01
2018-02-06T06:44:25.879Z,0.00
2018-02-06T06:44:49.705Z,-0.01
2018-02-06T06:45:13.463Z,-0.02
2018-02-06T06:45:37.256Z,-0.02
2018-02-06T06:46:00.746Z,-0.02
2018-02-06T06:46:24.548Z,-0.02
2018-02-06T06:46:48.353Z,-0.03
2018-02-06T06:47:12.105Z,-0.04
2018-02-06T06:47:36.199Z,-0.03
2018-02-06T06:47:59.997Z,-0.03
2018-02-06T06:48:23.470Z,-0.03
2018-02-06T06:48:47.408Z,-0.03
2018-02-06T06:49:11.160Z,-0.04
2018-02-06T06:49:35.097Z,-0.04
2018-02-06T06:49:58.882Z,-0.04
2018-02-06T06:50:22.634Z,-0.04
2018-02-06T06:50:46.125Z,-0.04
2018-02-06T06:51:09.873Z,-0.04
2018-02-06T06:51:33.711Z,-0.04
2018-02-06T06:51:57.476Z,-0.04
2018-02-06T06:52:21.452Z,-0.02
2018-02-06T06:52:45.320Z,-0.02
2018-02-06T06:53:08.796Z,-0.02
2018-02-06T06:53:32.597Z,-0.02
2018-02-06T06:53:56.371Z,-0.01
2018-02-06T06:54:20.193Z,-0.02
2018-02-06T06:54:43.953Z,-0.01
2018-02-06T06:55:08.024Z,-0.01
2018-02-06T06:55:31.793Z,-0.01
2018-02-06T06:55:55.269Z,-0.01
2018-02-06T06:56:19.021Z,-0.01
2018-02-06T06:56:42.849Z,-0.01
2018-02-06T06:57:06.709Z,-0.01
2018-02-06T06:57:30.514Z,-0.01
2018-02-06T06:57:54.560Z,-0.01
2018-02-06T06:58:18.367Z,0.00
2018-02-06T06:58:42.423Z,0.00
2018-02-06T06:59:06.192Z,0.00
2018-02-06T06:59:29.697Z,0.00
2018-02-06T06:59:53.480Z,-0.01
2018-02-06T07:00:17.088Z,-0.01
2018-02-06T07:00:40.556Z,-0.01
2018-02-06T07:01:04.362Z,-0.01
2018-02-06T07:01:28.151Z,-0.01
2018-02-06T07:01:51.908Z,-0.01
2018-02-06T07:02:15.955Z,0.00
2018-02-06T07:02:39.816Z,-0.01
2018-02-06T07:03:03.863Z,-0.01
2018-02-06T07:03:27.622Z,-0.01
2018-02-06T07:03:51.073Z,-0.01
2018-02-06T07:04:14.847Z,0.01
2018-02-06T07:04:38.580Z,0.00
2018-02-06T07:05:02.319Z,0.01
2018-02-06T07:05:26.397Z,0.01
2018-02-06T07:05:50.425Z,0.01
2018-02-06T07:06:14.172Z,0.00
2018-02-06T07:06:37.679Z,0.00
2018-02-06T07:07:01.428Z,-0.01
2018-02-06T07:07:25.181Z,-0.01
2018-02-06T07:07:48.631Z,-0.01
2018-02-06T07:08:12.416Z,-0.01
2018-02-06T07:08:36.198Z,-0.01
2018-02-06T07:09:00.029Z,-0.01
2018-02-06T07:09:23.780Z,-0.02
2018-02-06T07:09:47.811Z,-0.02
2018-02-06T07:10:11.836Z,-0.03
2018-02-06T07:10:35.604Z,-0.03
2018-02-06T07:10:59.624Z,-0.04
2018-02-06T07:11:23.639Z,-0.05
2018-02-06T07:11:47.479Z,-0.05
2018-02-06T07:12:11.494Z,-0.05
2018-02-06T07:12:34.963Z,-0.06
2018-02-06T07:12:58.556Z,-0.07
2018-02-06T07:13:22.379Z,-0.06
2018-02-06T07:13:46.139Z,-0.07
2018-02-06T07:14:10.180Z,-0.07
2018-02-06T07:14:33.664Z,-0.07
2018-02-06T07:14:57.432Z,-0.07
2018-02-06T07:15:21.224Z,-0.08
2018-02-06T07:15:45.117Z,-0.08
2018-02-06T07:16:08.676Z,-0.07
2018-02-06T07:16:32.464Z,-0.06
2018-02-06T07:16:55.966Z,-0.06
2018-02-06T07:17:19.779Z,-0.05
2018-02-06T07:17:43.537Z,-0.05
2018-02-06T07:18:06.992Z,-0.04
2018-02-06T07:18:30.748Z,-0.03
2018-02-06T07:18:54.521Z,-0.03
2018-02-06T07:19:18.002Z,-0.02
2018-02-06T07:19:41.735Z,-0.01
2018-02-06T07:20:04.820Z,-0.01
2018-02-06T07:20:28.572Z,0.00
2018-02-06T07:20:52.165Z,0.00
2018-02-06T07:21:16.189Z,0.01
2018-02-06T07:21:39.642Z,0.02
2018-02-06T07:22:03.592Z,0.02
2018-02-06T07:22:27.344Z,0.02
2018-02-06T07:22:51.092Z,0.03
2018-02-06T07:23:14.826Z,0.03
2018-02-06T07:23:38.884Z,0.04
2018-02-06T07:24:02.656Z,0.04
2018-02-06T07:24:26.684Z,0.04
2018-02-06T07:24:50.714Z,0.04
2018-02-06T07:25:14.483Z,0.04
2018-02-06T07:25:38.543Z,0.06
2018-02-06T07:26:02.384Z,0.05
2018-02-06T07:26:26.489Z,0.06
2018-02-06T07:26:50.263Z,0.06
2018-02-06T07:27:14.304Z,0.06
2018-02-06T07:27:38.098Z,0.06
2018-02-06T07:28:01.579Z,0.08
2018-02-06T07:28:25.317Z,0.08
2018-02-06T07:28:49.107Z,0.09
2018-02-06T07:29:12.927Z,0.09
2018-02-06T07:29:37.019Z,0.10
2018-02-06T07:30:00.771Z,0.11
2018-02-06T07:30:24.896Z,0.11
2018-02-06T07:30:48.652Z,0.11
2018-02-06T07:31:12.717Z,0.12
2018-02-06T07:31:36.477Z,0.12
2018-02-06T07:32:00.534Z,0.13
2018-02-06T07:32:24.656Z,0.13
2018-02-06T07:32:48.404Z,0.13
2018-02-06T07:33:12.466Z,0.15
2018-02-06T07:33:36.237Z,0.15
2018-02-06T07:34:00.337Z,0.16
2018-02-06T07:34:24.284Z,0.17
2018-02-06T07:34:48.243Z,0.17
2018-02-06T07:35:12.092Z,0.18
2018-02-06T07:35:36.140Z,0.20
2018-02-06T07:35:59.902Z,0.20
2018-02-06T07:36:24.020Z,0.21
2018-02-06T07:36:47.768Z,0.21
2018-02-06T07:37:11.909Z,0.22
2018-02-06T07:37:35.639Z,0.22
2018-02-06T07:37:59.721Z,0.24
2018-02-06T07:38:23.488Z,0.24
2018-02-06T07:38:47.009Z,0.25
2018-02-06T07:39:10.784Z,0.25
2018-02-06T07:39:34.542Z,0.25
2018-02-06T07:39:58.301Z,0.27
2018-02-06T07:40:22.349Z,0.28
2018-02-06T07:40:46.107Z,0.28
2018-02-06T07:41:10.188Z,0.29
2018-02-06T07:41:33.956Z,0.29
2018-02-06T07:41:57.408Z,0.29
2018-02-06T07:42:21.145Z,0.30
2018-02-06T07:42:44.933Z,0.30
2018-02-06T07:43:08.744Z,0.31
2018-02-06T07:43:32.300Z,0.32
2018-02-06T07:43:55.871Z,0.32
2018-02-06T07:44:19.644Z,0.33
2018-02-06T07:44:43.686Z,0.34
2018-02-06T07:45:07.623Z,0.34
2018-02-06T07:45:31.520Z,0.34
2018-02-06T07:45:55.373Z,0.36
2018-02-06T07:46:19.416Z,0.36
2018-02-06T07:46:43.368Z,0.37
2018-02-06T07:47:07.111Z,0.38
2018-02-06T07:47:31.172Z,0.38
2018-02-06T07:47:54.631Z,0.39
2018-02-06T07:48:18.393Z,0.39
2018-02-06T07:48:42.238Z,0.39
2018-02-06T07:49:06.005Z,0.40
2018-02-06T07:49:29.872Z,0.41
2018-02-06T07:49:53.349Z,0.41
2018-02-06T07:50:17.103Z,0.42
2018-02-06T07:50:40.849Z,0.42
2018-02-06T07:51:04.623Z,0.42
2018-02-06T07:51:28.713Z,0.41
2018-02-06T07:51:52.529Z,0.42
2018-02-06T07:52:16.293Z,0.41
2018-02-06T07:52:39.841Z,0.42
2018-02-06T07:53:03.681Z,0.42
2018-02-06T07:53:27.480Z,0.42
2018-02-06T07:53:51.243Z,0.42
2018-02-06T07:54:15.051Z,0.42